Time;durP1;ratioP1;P1;durP2;ratioP2;P2;SDS_P1;SDS_P2;PMS_P1;PMS_P2;Temp;Humidity;BMP_temperature;BMP_pressure;BME280_temperature;BME280_humidity;BME280_pressure;Samples;Min_cycle;Max_cycle;Signal;HPM_P1;HPM_P2
2023/10/29 00:01:51;;;;;;;2.35;0.70;;;11.70;99.90;;;;;;4961985;28;20030;-78
2023/10/29 00:04:16;;;;;;;3.13;1.48;;;11.80;99.90;;;;;;4959680;28;20530;-77
2023/10/29 00:06:42;;;;;;;4.57;1.10;;;11.80;99.90;;;;;;4977706;28;20034;-78
2023/10/29 00:09:08;;;;;;;2.78;0.93;;;11.80;99.90;;;;;;4940067;28;20133;-78
2023/10/29 00:11:33;;;;;;;1.83;1.00;;;11.80;99.90;;;;;;4969921;28;20541;-78
2023/10/29 00:13:59;;;;;;;4.32;1.13;;;11.80;99.90;;;;;;4972931;28;20110;-78
2023/10/29 00:16:25;;;;;;;5.60;1.45;;;11.80;99.90;;;;;;4979153;28;20045;-77
2023/10/29 00:18:50;;;;;;;4.18;0.98;;;11.80;99.90;;;;;;4976348;28;20503;-78
2023/10/29 00:21:16;;;;;;;1.83;1.10;;;11.80;99.90;;;;;;4972135;28;20085;-78
2023/10/29 00:23:42;;;;;;;1.85;0.93;;;11.90;99.90;;;;;;4976548;28;20042;-78
2023/10/29 00:26:07;;;;;;;5.38;1.50;;;11.90;99.90;;;;;;4976407;28;20487;-77
2023/10/29 00:28:33;;;;;;;4.15;1.05;;;11.90;99.90;;;;;;4972639;28;20486;-78
2023/10/29 00:30:59;;;;;;;2.47;1.10;;;11.90;99.90;;;;;;4978880;28;20384;-78
2023/10/29 00:33:24;;;;;;;2.17;0.85;;;11.90;99.90;;;;;;4960179;28;20442;-79
2023/10/29 00:35:50;;;;;;;2.25;0.90;;;11.90;99.90;;;;;;4978652;28;20118;-78
2023/10/29 00:38:15;;;;;;;4.38;1.15;;;12.00;99.90;;;;;;4960362;28;20038;-80
2023/10/29 00:40:41;;;;;;;2.33;0.80;;;12.00;99.90;;;;;;4977705;28;20030;-78
2023/10/29 00:43:07;;;;;;;1.65;0.82;;;11.90;99.90;;;;;;4979577;28;20041;-79
2023/10/29 00:45:32;;;;;;;5.80;1.08;;;12.00;99.90;;;;;;4973814;28;20053;-78
2023/10/29 00:47:58;;;;;;;3.63;1.25;;;12.00;99.90;;;;;;4957435;28;20092;-80
2023/10/29 00:50:24;;;;;;;4.78;1.25;;;12.10;99.90;;;;;;4961230;28;20517;-79
2023/10/29 00:52:49;;;;;;;1.27;0.80;;;12.00;99.90;;;;;;4964031;28;20100;-78
2023/10/29 00:55:15;;;;;;;7.30;1.30;;;12.00;99.90;;;;;;4969424;28;20026;-80
2023/10/29 00:57:40;;;;;;;3.90;0.82;;;12.00;99.90;;;;;;4942391;28;20638;-79
2023/10/29 01:00:06;;;;;;;2.85;1.27;;;12.00;99.90;;;;;;4974382;28;20117;-79
2023/10/29 01:02:33;;;;;;;3.55;1.13;;;12.10;99.90;;;;;;4976755;28;20038;-78
2023/10/29 01:04:59;;;;;;;2.13;1.27;;;12.10;99.90;;;;;;4975292;28;21329;-79
2023/10/29 01:07:25;;;;;;;2.17;0.80;;;12.10;99.90;;;;;;4973793;28;20531;-78
2023/10/29 01:09:50;;;;;;;5.15;1.27;;;12.10;99.90;;;;;;4976695;28;20030;-78
2023/10/29 01:12:16;;;;;;;2.53;1.10;;;12.10;99.90;;;;;;4973342;28;20030;-77
2023/10/29 01:14:43;;;;;;;4.15;1.35;;;12.00;99.90;;;;;;4975218;28;20022;-77
2023/10/29 01:17:08;;;;;;;5.22;1.05;;;12.00;99.90;;;;;;4980310;28;20117;-78
2023/10/29 01:19:34;;;;;;;5.13;1.25;;;12.00;99.90;;;;;;4975332;28;20770;-79
2023/10/29 01:21:59;;;;;;;3.08;1.00;;;12.00;99.90;;;;;;4957422;28;20447;-78
2023/10/29 01:24:25;;;;;;;4.45;1.25;;;12.10;99.90;;;;;;4956122;28;20045;-78
2023/10/29 01:26:51;;;;;;;3.80;0.98;;;12.00;99.90;;;;;;4972405;28;20027;-77
2023/10/29 01:29:16;;;;;;;1.88;0.85;;;12.00;99.90;;;;;;4974792;28;20474;-78
2023/10/29 01:31:42;;;;;;;2.35;1.00;;;12.00;99.90;;;;;;4973429;28;20030;-77
2023/10/29 01:34:08;;;;;;;1.80;0.77;;;11.90;99.90;;;;;;4978870;28;20125;-78
2023/10/29 01:36:33;;;;;;;1.90;0.80;;;12.00;99.90;;;;;;4958974;28;20038;-78
2023/10/29 01:38:59;;;;;;;4.70;1.15;;;12.00;99.90;;;;;;4971868;28;20806;-78
2023/10/29 01:41:24;;;;;;;1.98;1.25;;;12.00;99.90;;;;;;4958839;28;20486;-78
2023/10/29 01:43:50;;;;;;;4.47;0.80;;;12.00;99.90;;;;;;4975594;28;20431;-79
2023/10/29 01:46:16;;;;;;;2.40;0.82;;;12.00;99.90;;;;;;4971964;28;20409;-78
2023/10/29 01:48:41;;;;;;;2.42;1.27;;;12.00;99.90;;;;;;4971487;28;20592;-78
2023/10/29 01:51:07;;;;;;;3.63;0.93;;;12.00;99.90;;;;;;4960671;28;20041;-78
2023/10/29 01:53:32;;;;;;;4.38;1.15;;;12.00;99.90;;;;;;4959156;28;20169;-78
2023/10/29 01:55:58;;;;;;;2.40;0.90;;;12.00;99.90;;;;;;4956513;28;20104;-77
2023/10/29 01:58:23;;;;;;;2.88;0.80;;;12.00;99.90;;;;;;4957411;28;20040;-77
2023/10/29 02:00:54;;;;;;;2.20;1.08;;;12.00;99.90;;;;;;4962826;28;20038;-78
2023/10/29 02:03:20;;;;;;;3.60;1.13;;;12.10;99.90;;;;;;4933337;28;20659;-79
2023/10/29 02:05:45;;;;;;;12.52;1.20;;;12.10;99.90;;;;;;4970226;28;20045;-77
2023/10/29 02:08:11;;;;;;;7.53;1.30;;;12.10;99.90;;;;;;4976263;28;20103;-78
2023/10/29 02:10:37;;;;;;;2.45;0.80;;;12.10;99.90;;;;;;4957249;28;20379;-78
2023/10/29 02:13:02;;;;;;;2.28;1.10;;;12.10;99.90;;;;;;4960909;28;20069;-77
2023/10/29 02:15:28;;;;;;;3.13;1.13;;;12.10;99.90;;;;;;4973058;28;20034;-78
2023/10/29 02:17:53;;;;;;;2.50;1.10;;;12.10;99.90;;;;;;4960293;28;20022;-77
2023/10/29 02:20:19;;;;;;;0.98;0.82;;;12.10;99.90;;;;;;4973661;28;20487;-78
2023/10/29 02:22:44;;;;;;;3.90;1.02;;;12.10;99.90;;;;;;4969433;28;20041;-78
2023/10/29 02:25:10;;;;;;;0.95;0.82;;;12.10;99.90;;;;;;4959496;28;20026;-78
2023/10/29 02:27:35;;;;;;;1.58;0.95;;;12.10;99.90;;;;;;4985802;28;20058;-77
2023/10/29 02:30:01;;;;;;;3.45;1.00;;;12.10;99.90;;;;;;4959699;28;20490;-79
2023/10/29 02:32:27;;;;;;;2.55;1.00;;;12.10;99.90;;;;;;4959178;28;20483;-78
2023/10/29 02:34:53;;;;;;;4.47;0.88;;;12.10;99.90;;;;;;4956955;28;20034;-78
2023/10/29 02:37:18;;;;;;;4.40;1.00;;;12.10;99.90;;;;;;4972034;28;20064;-78
2023/10/29 02:39:44;;;;;;;4.93;0.88;;;12.10;99.90;;;;;;4973323;28;20053;-77
2023/10/29 02:42:14;;;;;;;1.58;0.98;;;12.10;99.90;;;;;;4958669;28;20038;-77
2023/10/29 02:44:40;;;;;;;1.08;0.90;;;12.10;99.90;;;;;;4974406;28;20037;-78
2023/10/29 02:47:05;;;;;;;3.05;1.15;;;12.10;99.90;;;;;;4960618;28;20035;-78
2023/10/29 02:49:31;;;;;;;1.70;0.90;;;12.00;99.90;;;;;;4958794;28;20038;-77
2023/10/29 02:51:56;;;;;;;2.00;0.90;;;12.00;99.90;;;;;;4971596;28;20030;-77
2023/10/29 02:54:22;;;;;;;1.65;0.90;;;12.10;99.90;;;;;;4970159;28;20390;-78
2023/10/29 02:56:47;;;;;;;2.17;1.00;;;12.00;99.90;;;;;;4971925;28;20031;-79
2023/10/29 02:59:13;;;;;;;6.00;1.23;;;12.10;99.90;;;;;;4971808;28;20053;-79
2023/10/29 03:01:38;;;;;;;2.42;1.05;;;12.10;99.90;;;;;;4951822;28;20038;-78
2023/10/29 03:04:05;;;;;;;3.40;0.80;;;12.10;99.90;;;;;;4954947;28;20030;-78
2023/10/29 03:06:31;;;;;;;3.83;1.25;;;12.20;99.90;;;;;;4970980;28;20034;-78
2023/10/29 03:08:57;;;;;;;2.13;0.90;;;12.10;99.90;;;;;;4974721;28;20038;-77
2023/10/29 03:11:22;;;;;;;3.42;1.20;;;12.10;99.90;;;;;;4954789;28;20049;-79
2023/10/29 03:13:48;;;;;;;1.00;0.65;;;12.10;99.90;;;;;;4969648;28;20030;-78
2023/10/29 03:16:13;;;;;;;3.95;1.23;;;12.20;99.90;;;;;;4972247;28;20574;-79
2023/10/29 03:18:39;;;;;;;0.95;0.55;;;12.10;99.90;;;;;;4954404;28;20620;-78
2023/10/29 03:21:04;;;;;;;1.05;0.65;;;12.20;99.90;;;;;;4962698;28;20026;-79
2023/10/29 03:23:30;;;;;;;2.33;0.73;;;12.20;99.90;;;;;;4972465;28;20026;-79
2023/10/29 03:26:04;;;;;;;2.05;0.95;;;12.20;99.90;;;;;;4972543;28;20038;-80
2023/10/29 03:28:30;;;;;;;1.88;0.68;;;12.20;99.90;;;;;;4969980;28;20038;-79
2023/10/29 03:30:56;;;;;;;3.58;1.02;;;12.20;99.90;;;;;;4969337;28;20048;-79
2023/10/29 03:33:22;;;;;;;2.40;0.93;;;12.20;99.90;;;;;;4970315;28;20568;-79
2023/10/29 03:35:47;;;;;;;3.15;0.80;;;12.20;99.90;;;;;;4960925;28;20038;-78
2023/10/29 03:38:16;;;;;;;1.10;0.47;;;12.10;99.90;;;;;;4957520;28;20045;-79
2023/10/29 03:40:41;;;;;;;1.20;0.77;;;12.20;99.90;;;;;;4960763;28;20045;-79
2023/10/29 03:43:08;;;;;;;3.97;0.70;;;12.10;99.90;;;;;;4960034;28;20034;-78
2023/10/29 03:45:33;;;;;;;4.55;0.60;;;12.10;99.90;;;;;;4960172;28;20041;-79
2023/10/29 03:47:59;;;;;;;2.47;0.75;;;12.10;99.90;;;;;;4973069;28;20030;-80
2023/10/29 03:50:24;;;;;;;2.35;0.85;;;12.10;99.90;;;;;;4975568;28;20486;-79
2023/10/29 03:52:50;;;;;;;2.15;0.98;;;12.20;99.90;;;;;;4959185;28;20038;-79
2023/10/29 03:55:15;;;;;;;4.57;0.95;;;12.20;99.90;;;;;;4967916;28;20026;-79
2023/10/29 03:57:42;;;;;;;0.98;0.77;;;12.20;99.90;;;;;;4943586;28;20022;-80
2023/10/29 04:00:08;;;;;;;1.52;0.70;;;12.20;99.90;;;;;;4976813;28;20822;-79
2023/10/29 04:02:34;;;;;;;0.60;0.52;;;12.20;99.90;;;;;;4961971;28;20038;-79
2023/10/29 04:04:59;;;;;;;2.38;0.80;;;12.20;99.90;;;;;;4978439;28;20033;-79
2023/10/29 04:07:25;;;;;;;2.63;0.60;;;12.30;99.90;;;;;;4961791;28;20026;-80
2023/10/29 04:09:51;;;;;;;2.88;0.60;;;12.30;99.90;;;;;;4975140;28;20344;-79
2023/10/29 04:12:16;;;;;;;0.88;0.47;;;12.30;99.90;;;;;;4975781;28;20057;-78
2023/10/29 04:14:42;;;;;;;2.47;0.75;;;12.40;99.90;;;;;;4961178;28;20395;-80
2023/10/29 04:17:09;;;;;;;0.85;0.63;;;12.40;99.90;;;;;;4964374;28;20037;-79
2023/10/29 04:19:34;;;;;;;3.53;0.70;;;12.40;99.90;;;;;;4973682;28;20035;-80
2023/10/29 04:22:01;;;;;;;1.65;0.70;;;12.40;99.90;;;;;;4976533;28;20398;-80
2023/10/29 04:24:27;;;;;;;2.63;0.70;;;12.40;99.90;;;;;;4976271;28;20121;-78
2023/10/29 04:26:52;;;;;;;0.70;0.50;;;12.50;99.90;;;;;;4960038;28;20114;-79
2023/10/29 04:29:18;;;;;;;5.80;0.90;;;12.40;99.90;;;;;;4959279;28;20069;-79
2023/10/29 04:31:43;;;;;;;0.73;0.45;;;12.40;99.90;;;;;;4958585;28;20113;-79
2023/10/29 04:34:09;;;;;;;4.00;0.50;;;12.40;99.90;;;;;;4956852;28;20058;-80
2023/10/29 04:36:35;;;;;;;1.85;0.60;;;12.40;99.90;;;;;;4954419;28;20038;-80
2023/10/29 04:39:00;;;;;;;2.47;0.73;;;12.40;99.90;;;;;;4963596;28;20394;-79
2023/10/29 04:41:26;;;;;;;1.33;0.60;;;12.40;99.90;;;;;;4972655;28;20109;-79
2023/10/29 04:43:51;;;;;;;0.30;0.20;;;12.40;99.90;;;;;;4954113;28;20053;-79
2023/10/29 04:46:18;;;;;;;1.40;0.60;;;12.50;99.90;;;;;;4972088;28;20814;-80
2023/10/29 04:48:44;;;;;;;0.60;0.60;;;12.50;99.90;;;;;;4960503;28;20521;-79
2023/10/29 04:51:09;;;;;;;1.45;0.40;;;12.40;99.90;;;;;;4958804;28;20043;-80
2023/10/29 04:53:35;;;;;;;0.80;0.57;;;12.40;99.90;;;;;;4973143;28;20137;-80
2023/10/29 04:56:00;;;;;;;1.13;0.60;;;12.40;99.90;;;;;;4961003;28;20041;-79
2023/10/29 04:58:26;;;;;;;0.88;0.40;;;12.50;99.90;;;;;;4974733;28;20041;-81
2023/10/29 05:00:52;;;;;;;1.25;0.55;;;12.40;99.90;;;;;;4959379;28;20105;-80
2023/10/29 05:03:19;;;;;;;1.45;0.65;;;12.50;99.90;;;;;;4961811;28;20044;-79
2023/10/29 05:05:44;;;;;;;1.77;0.55;;;12.50;99.90;;;;;;4972832;28;20042;-79
2023/10/29 05:08:10;;;;;;;0.50;0.50;;;12.50;99.90;;;;;;4959135;28;20045;-79
2023/10/29 05:10:35;;;;;;;3.33;0.80;;;12.50;99.90;;;;;;4957621;28;20487;-79
2023/10/29 05:13:02;;;;;;;0.50;0.40;;;12.60;99.90;;;;;;4972222;28;20033;-79
2023/10/29 05:15:28;;;;;;;1.13;0.65;;;12.60;99.90;;;;;;4960631;28;20125;-80
2023/10/29 05:17:54;;;;;;;1.30;0.63;;;12.60;99.90;;;;;;4958637;28;20023;-79
2023/10/29 05:20:19;;;;;;;1.10;0.47;;;12.60;99.90;;;;;;4961758;28;20084;-79
2023/10/29 05:22:45;;;;;;;1.48;0.82;;;12.70;99.90;;;;;;4975231;28;20387;-79
2023/10/29 05:25:13;;;;;;;1.08;0.68;;;12.70;99.90;;;;;;4972434;28;20623;-79
2023/10/29 05:27:39;;;;;;;2.55;0.50;;;12.80;99.90;;;;;;4944292;28;20034;-80
2023/10/29 05:30:05;;;;;;;0.98;0.50;;;12.80;99.90;;;;;;4970938;28;20033;-79
2023/10/29 05:32:32;;;;;;;3.92;0.60;;;12.80;99.90;;;;;;4975534;28;20129;-79
2023/10/29 05:34:58;;;;;;;1.85;0.70;;;12.80;99.90;;;;;;4976983;28;20541;-79
2023/10/29 05:37:24;;;;;;;1.10;0.50;;;12.80;99.90;;;;;;4975480;28;20030;-79
2023/10/29 05:39:51;;;;;;;1.88;0.68;;;12.80;99.90;;;;;;4975350;28;20105;-79
2023/10/29 05:42:17;;;;;;;1.15;0.70;;;12.80;99.90;;;;;;4975636;28;20434;-79
2023/10/29 05:44:45;;;;;;;4.55;0.57;;;12.80;99.90;;;;;;4957388;28;20023;-79
2023/10/29 05:47:10;;;;;;;4.40;0.70;;;12.80;99.90;;;;;;4988908;28;20108;-79
2023/10/29 05:49:36;;;;;;;2.28;0.57;;;12.90;99.90;;;;;;4976010;28;20037;-78
2023/10/29 05:52:01;;;;;;;5.25;0.50;;;12.90;99.90;;;;;;4958058;28;20046;-80
2023/10/29 05:54:27;;;;;;;2.95;0.77;;;12.90;99.90;;;;;;4973271;28;20057;-78
2023/10/29 05:56:52;;;;;;;2.00;0.70;;;12.90;99.90;;;;;;4959725;28;20048;-78
2023/10/29 05:59:18;;;;;;;0.93;0.43;;;12.90;99.90;;;;;;4954417;28;20045;-78
2023/10/29 06:01:44;;;;;;;2.40;0.73;;;12.90;99.90;;;;;;4973362;28;20035;-79
2023/10/29 06:04:09;;;;;;;1.55;1.00;;;12.90;99.90;;;;;;4958589;28;20042;-79
2023/10/29 06:06:35;;;;;;;2.10;1.35;;;12.90;99.90;;;;;;4956848;28;20452;-78
2023/10/29 06:09:01;;;;;;;3.20;0.50;;;12.80;99.90;;;;;;4958950;28;20044;-78
2023/10/29 06:11:27;;;;;;;2.67;0.88;;;12.80;99.90;;;;;;4971810;28;20042;-78
2023/10/29 06:13:53;;;;;;;1.50;0.52;;;12.80;99.90;;;;;;4974291;28;20088;-79
2023/10/29 06:16:19;;;;;;;1.73;0.57;;;12.80;99.90;;;;;;4958743;28;20041;-79
2023/10/29 06:18:44;;;;;;;2.90;0.70;;;12.80;99.90;;;;;;4972482;28;20109;-79
2023/10/29 06:21:10;;;;;;;1.08;0.70;;;12.80;99.90;;;;;;4972487;28;20045;-78
2023/10/29 06:23:35;;;;;;;6.35;1.40;;;12.80;99.90;;;;;;4941007;28;20034;-78
2023/10/29 06:26:05;;;;;;;1.08;0.60;;;12.80;99.90;;;;;;4974961;28;20493;-78
2023/10/29 06:28:31;;;;;;;1.73;0.63;;;12.70;99.90;;;;;;4955048;28;20042;-78
2023/10/29 06:30:57;;;;;;;3.47;0.80;;;12.80;99.90;;;;;;4963221;28;20134;-79
2023/10/29 06:33:23;;;;;;;0.93;0.60;;;12.80;99.90;;;;;;4975018;28;20076;-79
2023/10/29 06:35:48;;;;;;;10.98;0.60;;;12.80;99.90;;;;;;4956732;28;20077;-79
2023/10/29 06:38:14;;;;;;;3.20;0.60;;;12.80;99.90;;;;;;4976856;28;20030;-78
2023/10/29 06:40:40;;;;;;;0.70;0.50;;;12.90;99.90;;;;;;4960470;28;20394;-79
2023/10/29 06:43:06;;;;;;;6.05;0.75;;;12.90;99.90;;;;;;4970007;28;20050;-79
2023/10/29 06:45:32;;;;;;;3.20;0.73;;;12.80;99.90;;;;;;4972518;28;20035;-79
2023/10/29 06:47:58;;;;;;;2.67;0.65;;;12.90;99.90;;;;;;4972679;28;20038;-78
2023/10/29 06:50:23;;;;;;;3.13;0.68;;;12.90;99.90;;;;;;4970852;28;20023;-79
2023/10/29 06:52:49;;;;;;;1.85;0.50;;;12.90;99.90;;;;;;4969777;28;20046;-79
2023/10/29 06:55:15;;;;;;;4.00;0.55;;;12.90;99.90;;;;;;4955469;28;20113;-79
2023/10/29 06:57:41;;;;;;;2.03;0.35;;;12.80;99.90;;;;;;4945926;28;20038;-78
2023/10/29 07:00:08;;;;;;;4.40;0.60;;;13.00;99.90;;;;;;4957863;28;20042;-78
2023/10/29 07:02:33;;;;;;;3.20;0.28;;;13.00;99.90;;;;;;4954964;28;20042;-79
2023/10/29 07:04:59;;;;;;;2.75;0.70;;;13.00;99.90;;;;;;4979226;28;20500;-79
2023/10/29 07:07:29;;;;;;;2.15;0.40;;;13.00;99.90;;;;;;4958802;28;20034;-78
2023/10/29 07:09:55;;;;;;;2.58;0.60;;;13.00;99.90;;;;;;4957540;28;20388;-78
2023/10/29 07:12:20;;;;;;;1.30;0.40;;;13.00;99.90;;;;;;4970908;28;20052;-79
2023/10/29 07:14:48;;;;;;;1.58;0.45;;;13.00;99.90;;;;;;4975826;28;20457;-78
2023/10/29 07:17:14;;;;;;;1.65;0.50;;;13.00;99.90;;;;;;4974357;28;20042;-79
2023/10/29 07:19:39;;;;;;;2.60;0.45;;;13.00;99.90;;;;;;4958298;28;20135;-79
2023/10/29 07:22:05;;;;;;;2.50;0.50;;;13.00;99.90;;;;;;4962842;28;20044;-78
2023/10/29 07:24:34;;;;;;;1.13;0.57;;;13.00;99.90;;;;;;4943517;28;20015;-78
2023/10/29 07:27:01;;;;;;;2.67;0.63;;;13.10;99.90;;;;;;4978597;28;20058;-78
2023/10/29 07:29:26;;;;;;;0.98;0.38;;;13.00;99.90;;;;;;4961958;28;20041;-79
2023/10/29 07:31:52;;;;;;;3.67;0.63;;;13.00;99.90;;;;;;4976725;28;20463;-79
2023/10/29 07:34:17;;;;;;;3.38;0.77;;;13.00;99.90;;;;;;4962836;28;20044;-79
2023/10/29 07:36:44;;;;;;;0.77;0.40;;;13.00;99.90;;;;;;4977583;28;20057;-78
2023/10/29 07:39:10;;;;;;;3.50;0.50;;;13.00;99.90;;;;;;4976696;28;20144;-78
2023/10/29 07:41:36;;;;;;;0.80;0.40;;;13.00;99.90;;;;;;4978552;28;20047;-79
2023/10/29 07:44:01;;;;;;;3.63;0.52;;;13.10;99.90;;;;;;4960002;28;20038;-77
2023/10/29 07:46:27;;;;;;;3.70;1.60;;;13.10;99.90;;;;;;4960707;28;20023;-78
2023/10/29 07:48:52;;;;;;;1.10;0.60;;;13.00;99.90;;;;;;4970579;28;20033;-79
2023/10/29 07:51:18;;;;;;;7.22;0.40;;;13.00;99.90;;;;;;4971114;28;20399;-79
2023/10/29 07:53:43;;;;;;;4.00;0.77;;;13.00;99.90;;;;;;4973349;28;20492;-79
2023/10/29 07:56:13;;;;;;;3.38;0.55;;;13.00;99.90;;;;;;4958637;28;20473;-78
2023/10/29 07:58:38;;;;;;;3.10;1.00;;;13.00;99.90;;;;;;4954704;28;20092;-78
2023/10/29 08:01:13;;;;;;;2.15;0.75;;;12.90;99.90;;;;;;4947324;28;20438;-79
2023/10/29 08:03:39;;;;;;;4.70;0.75;;;12.90;99.90;;;;;;4975182;28;20073;-78
2023/10/29 08:06:05;;;;;;;4.28;0.70;;;12.90;99.90;;;;;;4978742;28;20406;-78
2023/10/29 08:08:30;;;;;;;3.70;0.70;;;13.00;99.90;;;;;;4959342;28;20038;-78
2023/10/29 08:10:56;;;;;;;4.28;0.70;;;13.00;99.90;;;;;;4978057;28;20034;-78
2023/10/29 08:13:21;;;;;;;4.35;0.65;;;13.10;99.90;;;;;;4959921;28;20030;-77
2023/10/29 08:15:47;;;;;;;2.63;0.60;;;13.20;99.90;;;;;;4957207;28;20042;-78
2023/10/29 08:18:14;;;;;;;7.03;1.08;;;13.10;99.90;;;;;;4974625;28;20062;-79
2023/10/29 08:20:40;;;;;;;3.13;0.73;;;13.20;99.90;;;;;;4963822;28;20045;-79
2023/10/29 08:23:06;;;;;;;6.63;1.17;;;13.20;99.90;;;;;;4979174;28;20050;-78
2023/10/29 08:25:32;;;;;;;3.38;0.80;;;13.20;99.90;;;;;;4974393;28;20069;-77
2023/10/29 08:27:58;;;;;;;1.55;0.30;;;13.20;99.90;;;;;;4977624;28;20521;-77
2023/10/29 08:30:23;;;;;;;5.45;0.75;;;13.30;99.90;;;;;;4960560;28;20030;-79
2023/10/29 08:32:49;;;;;;;3.58;0.52;;;13.30;99.90;;;;;;4962415;28;20057;-79
2023/10/29 08:35:15;;;;;;;0.98;0.50;;;13.30;99.90;;;;;;4972539;28;20034;-78
2023/10/29 08:37:40;;;;;;;3.97;1.77;;;13.30;99.90;;;;;;4943908;28;20031;-79
2023/10/29 08:40:06;;;;;;;2.33;0.63;;;13.30;99.90;;;;;;4945146;28;20108;-77
2023/10/29 08:42:32;;;;;;;3.70;0.80;;;13.40;99.90;;;;;;4953055;28;20042;-79
2023/10/29 08:44:58;;;;;;;2.05;0.65;;;13.50;99.90;;;;;;4939364;28;20043;-80
2023/10/29 08:47:25;;;;;;;5.88;0.65;;;13.50;99.90;;;;;;4974342;28;20050;-79
2023/10/29 08:49:50;;;;;;;1.63;0.70;;;13.60;99.90;;;;;;4976686;28;20072;-77
2023/10/29 08:52:17;;;;;;;4.13;0.60;;;13.80;99.90;;;;;;4974294;28;20127;-82
2023/10/29 08:54:43;;;;;;;2.88;0.70;;;13.60;99.90;;;;;;4940306;28;20114;-82
2023/10/29 08:57:09;;;;;;;3.75;0.40;;;13.70;99.90;;;;;;4961643;28;20038;-80
2023/10/29 08:59:35;;;;;;;3.13;0.68;;;13.70;99.90;;;;;;4978399;28;20393;-80
2023/10/29 09:02:00;;;;;;;1.35;0.45;;;13.80;99.90;;;;;;4979175;28;20030;-79
2023/10/29 09:04:27;;;;;;;3.33;0.57;;;13.80;99.90;;;;;;4976491;28;20042;-80
2023/10/29 09:06:52;;;;;;;2.75;0.30;;;13.80;99.90;;;;;;4958226;28;20057;-81
2023/10/29 09:09:18;;;;;;;2.22;0.80;;;13.90;99.90;;;;;;4980770;28;20128;-80
2023/10/29 09:11:44;;;;;;;5.57;0.88;;;13.90;99.90;;;;;;4977079;28;20041;-80
2023/10/29 09:14:13;;;;;;;1.20;0.45;;;13.90;99.90;;;;;;4976993;28;20030;-80
2023/10/29 09:16:41;;;;;;;3.85;0.90;;;14.00;99.90;;;;;;4962218;28;20038;-79
2023/10/29 09:19:07;;;;;;;2.08;0.40;;;14.00;99.90;;;;;;4976935;28;20866;-79
2023/10/29 09:21:33;;;;;;;3.55;0.75;;;14.00;99.90;;;;;;4974846;28;20022;-78
2023/10/29 09:23:59;;;;;;;5.60;1.20;;;14.00;99.90;;;;;;4962570;28;20042;-79
2023/10/29 09:26:24;;;;;;;2.28;0.55;;;14.00;99.90;;;;;;4972809;28;20490;-79
2023/10/29 09:28:50;;;;;;;1.15;0.55;;;14.10;99.90;;;;;;4975030;28;20053;-79
2023/10/29 09:31:18;;;;;;;2.50;0.73;;;14.10;99.90;;;;;;4974800;28;20518;-78
2023/10/29 09:33:44;;;;;;;2.00;0.47;;;14.10;99.90;;;;;;4962873;28;20065;-79
2023/10/29 09:36:10;;;;;;;4.30;0.70;;;14.10;99.90;;;;;;4958388;28;20133;-79
2023/10/29 09:38:35;;;;;;;2.28;0.60;;;14.10;99.90;;;;;;4964658;28;20640;-78
2023/10/29 09:41:01;;;;;;;1.52;0.40;;;14.10;99.90;;;;;;4978648;28;20068;-80
2023/10/29 09:43:29;;;;;;;1.58;0.50;;;14.10;99.90;;;;;;4960193;28;20034;-78
2023/10/29 09:45:54;;;;;;;1.70;0.60;;;14.10;99.90;;;;;;4972890;28;20680;-79
2023/10/29 09:48:23;;;;;;;3.85;0.60;;;14.10;99.90;;;;;;4960034;28;20125;-78
2023/10/29 09:50:48;;;;;;;5.70;0.88;;;14.20;99.90;;;;;;4961339;28;20086;-79
2023/10/29 09:53:15;;;;;;;1.35;0.60;;;14.20;99.90;;;;;;4959922;28;20790;-78
2023/10/29 09:55:40;;;;;;;5.15;0.80;;;14.30;99.90;;;;;;4970526;28;20057;-79
2023/10/29 09:58:06;;;;;;;2.55;0.63;;;14.30;99.90;;;;;;4974074;28;20018;-79
2023/10/29 10:00:32;;;;;;;3.28;0.82;;;14.30;99.90;;;;;;4973219;28;20029;-79
2023/10/29 10:03:04;;;;;;;2.08;0.50;;;14.30;99.90;;;;;;5032036;28;20436;-79
2023/10/29 10:05:30;;;;;;;1.33;0.40;;;14.40;99.90;;;;;;4984613;28;20026;-79
2023/10/29 10:07:56;;;;;;;1.60;0.40;;;14.40;99.90;;;;;;5016340;28;20467;-78
2023/10/29 10:10:35;;;;;;;0.77;0.30;;;14.50;99.90;;;;;;5016766;28;20030;-79
2023/10/29 10:13:01;;;;;;;1.48;0.30;;;14.70;99.90;;;;;;5034942;28;20034;-77
2023/10/29 10:15:27;;;;;;;2.67;0.50;;;14.90;99.90;;;;;;5008954;28;20040;-77
2023/10/29 10:18:04;;;;;;;2.92;0.63;;;15.10;99.90;;;;;;5005383;28;20081;-78
2023/10/29 10:20:32;;;;;;;2.10;0.20;;;15.30;99.90;;;;;;5002491;28;20032;-78
2023/10/29 10:23:08;;;;;;;1.85;0.50;;;15.50;99.90;;;;;;5020788;28;20251;-79
2023/10/29 10:25:34;;;;;;;2.20;0.60;;;15.60;99.90;;;;;;4974295;28;20422;-78
2023/10/29 10:28:00;;;;;;;4.82;0.63;;;15.80;99.90;;;;;;4999935;28;20044;-77
2023/10/29 10:30:40;;;;;;;4.63;0.60;;;15.90;99.90;;;;;;4998903;28;20026;-76
2023/10/29 10:33:13;;;;;;;3.03;0.40;;;16.00;99.90;;;;;;5010287;28;20038;-76
2023/10/29 10:35:42;;;;;;;0.40;0.30;;;16.00;99.90;;;;;;4998353;28;20065;-78
2023/10/29 10:38:08;;;;;;;2.22;0.68;;;16.00;99.90;;;;;;4997865;28;20085;-77
2023/10/29 10:40:34;;;;;;;0.40;0.30;;;16.00;99.90;;;;;;4997763;28;20077;-78
2023/10/29 10:42:59;;;;;;;2.95;0.57;;;16.10;99.90;;;;;;5014343;28;20038;-76
2023/10/29 10:45:26;;;;;;;1.92;0.47;;;16.10;99.90;;;;;;4981435;28;20454;-78
2023/10/29 10:47:56;;;;;;;1.17;0.50;;;16.10;99.90;;;;;;4984573;28;20050;-77
2023/10/29 10:50:22;;;;;;;2.13;0.68;;;16.00;99.90;;;;;;4983979;28;20463;-77
2023/10/29 10:52:49;;;;;;;1.02;0.55;;;16.00;99.90;;;;;;4996462;28;20712;-79
2023/10/29 10:55:15;;;;;;;1.98;0.40;;;16.10;99.90;;;;;;4999867;28;20120;-79
2023/10/29 10:57:41;;;;;;;0.65;0.30;;;16.10;99.90;;;;;;4984574;28;20084;-77
2023/10/29 11:00:10;;;;;;;1.52;0.40;;;16.30;99.90;;;;;;5018723;28;20030;-77
2023/10/29 11:02:37;;;;;;;1.58;0.45;;;16.50;99.90;;;;;;5011206;28;20125;-78
2023/10/29 11:05:04;;;;;;;3.35;0.45;;;16.70;99.90;;;;;;4997267;28;20046;-78
2023/10/29 11:07:31;;;;;;;0.52;0.20;;;16.80;99.90;;;;;;4997789;28;20042;-77
2023/10/29 11:09:58;;;;;;;1.88;0.40;;;17.00;99.90;;;;;;5005814;28;20315;-77
2023/10/29 11:12:24;;;;;;;6.65;0.60;;;17.10;99.90;;;;;;4982342;28;20041;-77
2023/10/29 11:15:21;;;;;;;2.17;0.50;;;17.20;99.90;;;;;;4973692;28;20038;-78
2023/10/29 11:18:00;;;;;;;2.97;0.50;;;17.20;99.90;;;;;;4968795;28;20556;-77
2023/10/29 11:20:47;;;;;;;1.98;0.40;;;17.50;99.90;;;;;;5000726;28;20030;-77
2023/10/29 11:23:13;;;;;;;1.00;0.30;;;17.50;99.90;;;;;;4983974;28;20035;-77
2023/10/29 11:25:42;;;;;;;1.70;0.30;;;17.50;99.90;;;;;;5017380;28;20027;-78
2023/10/29 11:28:34;;;;;;;2.53;0.50;;;17.40;99.90;;;;;;4986183;28;20501;-77
2023/10/29 11:31:18;;;;;;;1.95;0.40;;;17.40;99.90;;;;;;4975090;28;20042;-77
2023/10/29 11:33:45;;;;;;;2.25;0.70;;;17.50;99.90;;;;;;5003518;28;20399;-78
2023/10/29 11:36:33;;;;;;;6.47;0.98;;;17.60;99.90;;;;;;4984636;28;20490;-78
2023/10/29 11:39:31;;;;;;;2.97;0.80;;;17.70;99.90;;;;;;5011874;28;20487;-77
2023/10/29 11:41:56;;;;;;;2.10;0.43;;;17.80;99.90;;;;;;4968117;28;20446;-77
2023/10/29 11:44:28;;;;;;;1.80;0.32;;;17.70;99.90;;;;;;5002641;28;20030;-76
2023/10/29 11:47:03;;;;;;;3.58;0.75;;;17.80;99.90;;;;;;4969486;28;20216;-77
2023/10/29 11:49:44;;;;;;;3.67;0.88;;;17.70;99.90;;;;;;4987855;28;20449;-76
2023/10/29 11:52:09;;;;;;;2.75;0.60;;;17.60;99.90;;;;;;4985665;28;20174;-78
2023/10/29 11:54:37;;;;;;;2.28;0.45;;;17.60;99.90;;;;;;4998945;28;20407;-77
2023/10/29 11:57:07;;;;;;;7.50;0.98;;;17.60;99.90;;;;;;4996909;28;20463;-78
2023/10/29 11:59:53;;;;;;;3.22;0.57;;;17.50;99.90;;;;;;4997202;28;20514;-77
2023/10/29 12:02:19;;;;;;;2.10;0.80;;;17.50;99.90;;;;;;4976367;28;20152;-77
2023/10/29 12:04:44;;;;;;;1.73;0.60;;;17.40;99.90;;;;;;4968391;28;20129;-77
2023/10/29 12:07:24;;;;;;;3.80;0.52;;;17.50;99.90;;;;;;4983131;28;20424;-78
2023/10/29 12:10:06;;;;;;;3.40;0.70;;;17.30;99.90;;;;;;4997207;28;20030;-77
2023/10/29 12:12:32;;;;;;;2.85;0.68;;;17.30;99.90;;;;;;4996545;28;20030;-77
2023/10/29 12:14:58;;;;;;;4.18;0.65;;;17.10;99.90;;;;;;4984584;28;20043;-78
2023/10/29 12:17:24;;;;;;;3.03;0.57;;;17.00;99.90;;;;;;4983991;28;20038;-77
2023/10/29 12:19:49;;;;;;;3.97;0.77;;;16.90;99.90;;;;;;4985582;28;20146;-77
2023/10/29 12:22:30;;;;;;;2.00;0.75;;;16.70;99.90;;;;;;5011335;28;20554;-78
2023/10/29 12:25:00;;;;;;;0.70;0.60;;;16.40;99.90;;;;;;4965726;28;20092;-77
2023/10/29 12:27:29;;;;;;;1.00;0.50;;;16.20;99.90;;;;;;4982618;28;20602;-77
2023/10/29 12:29:54;;;;;;;2.83;0.80;;;16.00;99.90;;;;;;4983825;28;20030;-79
2023/10/29 12:32:26;;;;;;;2.88;0.43;;;15.90;99.90;;;;;;4981372;28;20491;-77
2023/10/29 12:34:53;;;;;;;3.90;0.68;;;15.70;99.90;;;;;;4996054;28;20671;-77
2023/10/29 12:37:28;;;;;;;2.95;0.60;;;15.70;99.90;;;;;;5011976;28;20927;-78
2023/10/29 12:39:56;;;;;;;1.63;0.65;;;15.60;99.90;;;;;;4996784;28;20406;-78
2023/10/29 12:42:53;;;;;;;3.70;0.80;;;15.50;99.90;;;;;;4977423;28;20094;-78
2023/10/29 12:45:28;;;;;;;2.28;0.60;;;15.30;99.90;;;;;;5012415;28;20038;-77
2023/10/29 12:48:29;;;;;;;3.13;0.55;;;15.20;99.90;;;;;;4968283;28;20061;-76